createdAt,value
2022-07-28T00:00:24.240Z,17.82
2022-07-28T00:02:56.368Z,15.85
2022-07-28T00:05:30.600Z,14.68
2022-07-28T00:08:03.228Z,16.40
2022-07-28T00:10:35.802Z,16.30
2022-07-28T00:13:07.883Z,18.42
2022-07-28T00:15:39.857Z,20.45
2022-07-28T00:18:11.789Z,17.12
2022-07-28T00:20:44.019Z,18.82
2022-07-28T00:23:16.349Z,14.13
2022-07-28T00:25:48.704Z,15.32
2022-07-28T00:28:20.667Z,13.62
2022-07-28T00:30:54.217Z,16.00
2022-07-28T00:33:27.113Z,13.48
2022-07-28T00:35:59.140Z,15.58
2022-07-28T00:38:32.016Z,13.85
2022-07-28T00:41:13.403Z,17.70
2022-07-28T00:43:48.511Z,12.43
2022-07-28T00:46:23.078Z,13.85
2022-07-28T00:48:56.540Z,17.65
2022-07-28T00:51:29.641Z,15.85
2022-07-28T00:54:01.976Z,13.43
2022-07-28T00:56:35.924Z,14.25
2022-07-28T00:59:08.377Z,16.70
2022-07-28T01:01:40.488Z,13.45
2022-07-28T01:04:13.096Z,12.50
2022-07-28T01:06:54.082Z,13.80
2022-07-28T01:09:53.189Z,14.73
2022-07-28T01:12:49.304Z,14.58
2022-07-28T01:15:33.394Z,14.23
2022-07-28T01:18:08.548Z,12.88
2022-07-28T01:20:55.673Z,15.90
2022-07-28T01:23:30.739Z,12.60
2022-07-28T01:26:26.733Z,15.48
2022-07-28T01:29:10.711Z,14.25
2022-07-28T01:31:45.777Z,14.50
2022-07-28T01:34:23.749Z,17.73
2022-07-28T01:36:58.834Z,11.88
2022-07-28T01:39:33.909Z,14.60
2022-07-28T01:42:08.464Z,15.93
2022-07-28T01:44:43.571Z,19.40
2022-07-28T01:47:17.982Z,14.53
2022-07-28T01:52:24.599Z,14.90
2022-07-28T01:55:00.210Z,14.93
2022-07-28T01:57:35.936Z,16.05
2022-07-28T02:00:11.635Z,18.82
2022-07-28T02:02:49.364Z,15.63
2022-07-28T02:05:23.551Z,20.65
2022-07-28T02:07:58.580Z,19.40
2022-07-28T02:10:31.600Z,20.43
2022-07-28T02:13:05.108Z,15.53
2022-07-28T02:15:40.344Z,14.90
2022-07-28T02:18:13.171Z,17.92
2022-07-28T02:21:03.294Z,14.90
2022-07-28T02:23:36.686Z,16.27
2022-07-28T02:26:11.811Z,18.65
2022-07-28T02:28:47.275Z,18.65
2022-07-28T02:31:22.646Z,17.30
2022-07-28T02:34:00.115Z,22.50
2022-07-28T02:36:38.154Z,20.40
2022-07-28T02:39:14.832Z,20.90
2022-07-28T02:41:49.857Z,17.62
2022-07-28T02:44:24.831Z,20.90
2022-07-28T02:46:59.362Z,19.25
2022-07-28T02:49:33.684Z,28.12
2022-07-28T02:54:41.289Z,19.55
2022-07-28T02:57:15.967Z,20.12
2022-07-28T02:59:51.607Z,21.77
2022-07-28T03:02:25.165Z,26.37
2022-07-28T03:04:59.322Z,21.70
2022-07-28T03:07:36.512Z,17.10
2022-07-28T03:10:12.590Z,24.35
2022-07-28T03:12:44.773Z,17.80
2022-07-28T03:15:17.598Z,20.05
2022-07-28T03:17:49.682Z,18.07
2022-07-28T03:20:22.006Z,17.92
2022-07-28T03:22:54.226Z,19.02
2022-07-28T03:25:29.977Z,17.15
2022-07-28T03:28:04.529Z,24.47
2022-07-28T03:30:42.874Z,22.27
2022-07-28T03:33:15.206Z,20.50
2022-07-28T03:35:50.232Z,22.40
2022-07-28T03:38:27.761Z,25.90
2022-07-28T03:41:00.903Z,17.32
2022-07-28T03:43:34.730Z,22.77
2022-07-28T03:46:12.845Z,25.57
2022-07-28T03:48:42.587Z,16.45
2022-07-28T03:51:14.913Z,16.40
2022-07-28T03:53:47.740Z,18.50
2022-07-28T03:56:20.080Z,19.92
2022-07-28T03:58:52.162Z,24.40
2022-07-28T04:01:24.539Z,19.60
2022-07-28T04:03:57.263Z,21.68
2022-07-28T04:06:29.550Z,18.65
2022-07-28T04:09:01.824Z,22.00
2022-07-28T04:11:34.277Z,24.40
2022-07-28T04:14:06.360Z,17.98
2022-07-28T04:16:39.382Z,20.35
2022-07-28T04:19:14.442Z,23.98
2022-07-28T04:21:46.938Z,18.48
2022-07-28T04:24:20.047Z,20.85
2022-07-28T04:26:52.781Z,19.15
2022-07-28T04:29:27.349Z,20.77
2022-07-28T04:31:59.592Z,22.73
2022-07-28T04:34:31.657Z,21.00
2022-07-28T04:37:04.389Z,18.82
2022-07-28T04:39:36.865Z,19.52
2022-07-28T04:42:09.361Z,22.93
2022-07-28T04:44:42.705Z,18.90
2022-07-28T04:47:15.380Z,22.45
2022-07-28T04:49:47.501Z,19.55
2022-07-28T04:52:20.181Z,21.93
2022-07-28T04:54:52.585Z,34.13
2022-07-28T04:57:27.053Z,25.90
2022-07-28T05:00:04.289Z,19.57
2022-07-28T05:02:37.675Z,16.95
2022-07-28T05:05:10.685Z,18.00
2022-07-28T05:07:43.261Z,15.83
2022-07-28T05:10:16.219Z,18.92
2022-07-28T05:12:49.897Z,16.30
2022-07-28T05:15:22.592Z,17.37
2022-07-28T05:17:55.175Z,17.05
2022-07-28T05:20:27.805Z,15.90
2022-07-28T05:23:00.070Z,20.20
2022-07-28T05:25:32.530Z,17.45
2022-07-28T05:28:05.995Z,17.90
2022-07-28T05:30:38.531Z,22.05
2022-07-28T05:33:10.594Z,18.82
2022-07-28T05:35:42.920Z,15.28
2022-07-28T05:38:15.449Z,19.12
2022-07-28T05:40:50.246Z,17.23
2022-07-28T05:43:23.139Z,21.07
2022-07-28T05:45:55.751Z,18.60
2022-07-28T05:48:28.244Z,16.95
2022-07-28T05:51:01.317Z,13.80
2022-07-28T05:53:34.896Z,18.90
2022-07-28T05:56:08.688Z,15.55
2022-07-28T05:58:41.132Z,14.70
2022-07-28T06:01:13.349Z,13.30
2022-07-28T06:03:58.066Z,18.95
2022-07-28T06:08:51.229Z,16.10
2022-07-28T06:11:24.693Z,14.63
2022-07-28T06:13:57.562Z,12.63
2022-07-28T06:16:30.357Z,15.85
2022-07-28T06:19:02.884Z,11.55
2022-07-28T06:21:36.944Z,13.00
2022-07-28T06:24:09.679Z,19.92
2022-07-28T06:26:44.868Z,15.38
2022-07-28T06:29:17.028Z,13.60
2022-07-28T06:31:50.516Z,12.20
2022-07-28T06:34:23.985Z,14.93
2022-07-28T06:36:56.552Z,12.15
2022-07-28T06:39:28.817Z,12.47
2022-07-28T06:42:01.805Z,12.03
2022-07-28T06:44:57.520Z,8.45
2022-07-28T06:47:10.691Z,20.85
2022-07-28T06:49:43.385Z,17.55
2022-07-28T06:52:17.378Z,13.55
2022-07-28T06:54:58.300Z,11.03
2022-07-28T06:57:33.560Z,13.10
2022-07-28T07:00:07.940Z,10.10
2022-07-28T07:02:41.820Z,8.43
2022-07-28T07:05:14.538Z,13.33
2022-07-28T07:07:47.236Z,12.90
2022-07-28T07:10:19.985Z,14.05
2022-07-28T07:12:52.473Z,9.98
2022-07-28T07:15:25.656Z,10.63
2022-07-28T07:18:00.415Z,8.15
2022-07-28T07:20:32.922Z,9.50
2022-07-28T07:23:05.670Z,10.15
2022-07-28T07:25:38.504Z,13.40
2022-07-28T07:28:11.165Z,15.25
2022-07-28T07:30:43.942Z,15.83
2022-07-28T07:33:16.677Z,13.18
2022-07-28T07:35:48.917Z,10.10
2022-07-28T07:38:23.169Z,11.80
2022-07-28T07:40:55.348Z,10.53
2022-07-28T07:43:27.800Z,12.58
2022-07-28T07:46:00.236Z,13.08
2022-07-28T07:48:32.810Z,10.30
2022-07-28T07:51:05.351Z,12.33
2022-07-28T07:53:37.957Z,16.12
2022-07-28T07:56:10.254Z,15.65
2022-07-28T07:58:44.887Z,10.10
2022-07-28T08:01:18.449Z,7.92
2022-07-28T08:03:51.524Z,9.70
2022-07-28T08:06:26.500Z,7.47
2022-07-28T08:08:59.425Z,10.08
2022-07-28T08:11:31.877Z,11.33
2022-07-28T08:14:04.654Z,9.20
2022-07-28T08:16:38.075Z,12.53
2022-07-28T08:19:11.051Z,8.10
2022-07-28T08:21:43.999Z,9.97
2022-07-28T08:24:27.615Z,10.28
2022-07-28T08:26:53.035Z,12.10
2022-07-28T08:29:25.370Z,7.78
2022-07-28T08:31:59.946Z,6.58
2022-07-28T08:34:33.984Z,7.05
2022-07-28T08:37:07.174Z,7.95
2022-07-28T08:39:40.092Z,6.90
2022-07-28T08:42:30.319Z,7.30
2022-07-28T08:45:07.813Z,13.90
2022-07-28T08:47:58.659Z,8.43
2022-07-28T08:50:19.829Z,8.60
2022-07-28T08:52:53.709Z,7.47
2022-07-28T08:58:01.369Z,5.35
2022-07-28T09:00:33.875Z,9.28
2022-07-28T09:03:07.230Z,8.48
2022-07-28T09:05:42.051Z,9.80
2022-07-28T09:08:14.798Z,13.75
2022-07-28T09:10:48.410Z,6.45
2022-07-28T09:13:20.850Z,8.20
2022-07-28T09:15:53.489Z,10.05
2022-07-28T09:18:28.143Z,8.95
2022-07-28T09:21:00.630Z,16.55
2022-07-28T09:23:48.237Z,10.95
2022-07-28T09:26:20.585Z,14.90
2022-07-28T09:28:59.092Z,10.65
2022-07-28T09:31:31.819Z,7.55
2022-07-28T09:34:07.405Z,7.60
2022-07-28T09:36:42.155Z,10.00
2022-07-28T09:39:17.123Z,8.33
2022-07-28T09:41:51.703Z,8.18
2022-07-28T09:44:27.477Z,18.27
2022-07-28T09:46:59.814Z,6.42
2022-07-28T09:49:43.494Z,12.03
2022-07-28T09:55:03.824Z,9.95
2022-07-28T09:57:38.051Z,6.72
2022-07-28T10:00:12.802Z,6.72
2022-07-28T10:02:48.709Z,7.70
2022-07-28T10:05:22.640Z,7.80
2022-07-28T10:07:55.099Z,9.48
2022-07-28T10:10:27.293Z,5.83
2022-07-28T10:13:06.920Z,7.95
2022-07-28T10:15:56.775Z,7.62
2022-07-28T10:18:28.856Z,8.38
2022-07-28T10:21:01.209Z,9.60
2022-07-28T10:23:33.821Z,7.30
2022-07-28T10:26:13.061Z,11.83
2022-07-28T10:28:51.978Z,6.47
2022-07-28T10:31:49.882Z,8.38
2022-07-28T10:34:43.141Z,7.42
2022-07-28T10:37:24.561Z,8.68
2022-07-28T10:40:10.698Z,7.83
2022-07-28T10:42:42.555Z,5.80
2022-07-28T10:45:15.585Z,7.37
2022-07-28T10:47:49.205Z,5.78
2022-07-28T10:50:23.013Z,6.40
2022-07-28T10:52:59.344Z,7.87
2022-07-28T10:55:52.241Z,5.87
2022-07-28T10:58:36.285Z,6.83
2022-07-28T11:01:17.066Z,5.17
2022-07-28T11:03:48.834Z,5.75
2022-07-28T11:06:44.856Z,7.35
2022-07-28T11:09:22.950Z,10.48
2022-07-28T11:11:58.130Z,6.42
2022-07-28T11:14:37.158Z,9.80
2022-07-28T11:17:13.465Z,7.42
2022-07-28T11:20:06.980Z,6.05
2022-07-28T11:22:27.118Z,8.40
2022-07-28T11:25:18.732Z,5.53
2022-07-28T11:27:49.275Z,5.87
2022-07-28T11:30:33.909Z,7.58
2022-07-28T11:35:44.865Z,11.33
2022-07-28T11:38:17.671Z,6.95
2022-07-28T11:40:52.267Z,10.08
2022-07-28T11:43:36.206Z,9.70
2022-07-28T11:46:11.287Z,8.73
2022-07-28T11:48:45.467Z,11.03
2022-07-28T11:51:17.499Z,11.85
2022-07-28T11:53:53.055Z,10.18
2022-07-28T11:56:29.498Z,6.58
2022-07-28T11:59:03.753Z,7.72
2022-07-28T12:01:38.692Z,6.85
2022-07-28T12:04:14.818Z,10.78
2022-07-28T12:06:51.219Z,5.55
2022-07-28T12:09:33.730Z,7.30
2022-07-28T12:12:01.923Z,8.55
2022-07-28T12:14:39.009Z,8.85
2022-07-28T12:17:12.309Z,9.05
2022-07-28T12:19:45.851Z,9.23
2022-07-28T12:22:18.287Z,10.00
2022-07-28T12:24:53.636Z,8.00
2022-07-28T12:27:31.894Z,8.15
2022-07-28T12:30:05.750Z,6.67
2022-07-28T12:32:38.126Z,12.63
2022-07-28T12:35:10.692Z,10.40
2022-07-28T12:37:44.629Z,9.60
2022-07-28T12:40:27.499Z,6.90
2022-07-28T12:42:55.309Z,12.28
2022-07-28T12:45:28.697Z,8.95
2022-07-28T12:48:10.614Z,5.17
2022-07-28T12:50:43.661Z,8.50
2022-07-28T12:53:18.333Z,12.28
2022-07-28T12:55:53.018Z,8.90
2022-07-28T12:58:27.629Z,7.62
2022-07-28T13:01:00.203Z,6.50
2022-07-28T13:03:33.894Z,8.83
2022-07-28T13:06:12.200Z,7.58
2022-07-28T13:08:48.476Z,7.47
2022-07-28T13:13:57.909Z,6.85
2022-07-28T13:16:31.015Z,8.65
2022-07-28T13:19:05.926Z,8.43
2022-07-28T13:24:18.678Z,8.13
2022-07-28T13:26:51.556Z,4.95
2022-07-28T13:29:24.257Z,10.63
2022-07-28T13:31:56.715Z,7.83
2022-07-28T13:34:29.394Z,12.73
2022-07-28T13:37:01.516Z,7.65
2022-07-28T13:39:33.754Z,9.30
2022-07-28T13:42:06.548Z,8.30
2022-07-28T13:44:40.441Z,4.08
2022-07-28T13:47:12.675Z,3.98
2022-07-28T13:49:46.661Z,5.58
2022-07-28T13:52:32.937Z,8.08
2022-07-28T13:54:54.274Z,8.13
2022-07-28T13:57:26.503Z,6.78
2022-07-28T13:59:58.780Z,5.35
2022-07-28T14:02:31.025Z,7.67
2022-07-28T14:05:03.520Z,10.50
2022-07-28T14:07:35.810Z,16.20
2022-07-28T14:10:08.715Z,10.18
2022-07-28T14:12:41.214Z,12.15
2022-07-28T14:15:15.342Z,9.40
2022-07-28T14:17:47.777Z,8.03
2022-07-28T14:20:20.101Z,10.82
2022-07-28T14:22:52.530Z,11.50
2022-07-28T14:25:24.851Z,11.25
2022-07-28T14:27:56.938Z,11.55
2022-07-28T14:30:33.312Z,5.90
2022-07-28T14:33:07.325Z,7.60
2022-07-28T14:35:39.677Z,7.58
2022-07-28T14:40:45.788Z,6.55
2022-07-28T14:43:18.206Z,12.93
2022-07-28T14:46:14.790Z,8.55
2022-07-28T14:48:24.190Z,8.88
2022-07-28T14:50:57.235Z,7.55
2022-07-28T14:53:29.601Z,9.33
2022-07-28T14:56:01.966Z,5.55
2022-07-28T14:58:34.171Z,8.48
2022-07-28T15:01:06.742Z,9.30
2022-07-28T15:03:43.399Z,5.08
2022-07-28T15:06:14.018Z,6.90
2022-07-28T15:08:46.214Z,6.05
2022-07-28T15:11:18.302Z,6.75
2022-07-28T15:13:50.496Z,11.00
2022-07-28T15:16:22.998Z,5.47
2022-07-28T15:18:55.587Z,5.87
2022-07-28T15:21:32.979Z,5.67
2022-07-28T15:24:09.476Z,11.68
2022-07-28T15:29:14.668Z,5.05
2022-07-28T15:31:47.201Z,9.78
2022-07-28T15:34:20.355Z,10.65
2022-07-28T15:36:52.777Z,4.62
2022-07-28T15:39:25.146Z,10.72
2022-07-28T15:41:58.992Z,4.30
2022-07-28T15:44:31.914Z,7.25
2022-07-28T15:47:04.307Z,8.53
2022-07-28T15:49:36.479Z,6.45
2022-07-28T15:52:08.639Z,6.53
2022-07-28T15:54:40.812Z,10.08
2022-07-28T15:57:13.996Z,7.25
2022-07-28T15:59:50.170Z,6.12
2022-07-28T16:02:20.731Z,8.63
2022-07-28T16:04:54.154Z,12.20
2022-07-28T16:07:28.248Z,6.67
2022-07-28T16:10:00.410Z,7.33
2022-07-28T16:12:33.623Z,7.28
2022-07-28T16:15:06.571Z,5.53
2022-07-28T16:17:38.825Z,8.13
2022-07-28T16:20:11.758Z,5.78
2022-07-28T16:22:44.360Z,6.67
2022-07-28T16:25:21.055Z,8.23
2022-07-28T16:27:54.106Z,6.85
2022-07-28T16:30:26.989Z,7.30
2022-07-28T16:32:59.547Z,9.53
2022-07-28T16:35:34.606Z,7.80
2022-07-28T16:38:07.984Z,9.15
2022-07-28T16:40:40.845Z,7.62
2022-07-28T16:43:13.227Z,10.00
2022-07-28T16:45:46.172Z,5.28
2022-07-28T16:48:18.367Z,7.92
2022-07-28T16:50:50.541Z,8.05
2022-07-28T16:53:22.411Z,6.83
2022-07-28T16:55:55.051Z,7.72
2022-07-28T16:58:27.067Z,7.25
2022-07-28T17:01:00.121Z,8.58
2022-07-28T17:03:32.961Z,6.15
2022-07-28T17:06:05.419Z,8.73
2022-07-28T17:08:37.647Z,9.50
2022-07-28T17:11:10.416Z,6.97
2022-07-28T17:13:45.408Z,7.03
2022-07-28T17:16:17.019Z,8.13
2022-07-28T17:18:49.387Z,4.33
2022-07-28T17:21:21.702Z,7.80
2022-07-28T17:23:53.932Z,7.87
2022-07-28T17:29:00.593Z,4.08
2022-07-28T17:31:33.695Z,4.37
2022-07-28T17:34:06.390Z,7.60
2022-07-28T17:36:41.336Z,3.72
2022-07-28T17:39:14.286Z,3.15
2022-07-28T17:41:46.269Z,4.35
2022-07-28T17:44:18.833Z,5.20
2022-07-28T17:46:52.199Z,5.08
2022-07-28T17:49:24.378Z,3.12
2022-07-28T17:51:56.867Z,2.25
2022-07-28T17:54:30.458Z,4.17
2022-07-28T17:57:03.443Z,7.93
2022-07-28T18:02:10.433Z,2.98
2022-07-28T18:04:42.560Z,2.85
2022-07-28T18:07:15.554Z,2.72
2022-07-28T18:09:47.781Z,6.35
2022-07-28T18:12:20.028Z,2.45
2022-07-28T18:14:52.461Z,1.98
2022-07-28T18:17:25.379Z,1.80
2022-07-28T18:19:57.685Z,3.30
2022-07-28T18:22:29.912Z,1.57
2022-07-28T18:25:03.001Z,3.90
2022-07-28T18:27:36.960Z,2.10
2022-07-28T18:30:09.765Z,4.05
2022-07-28T18:32:41.759Z,4.22
2022-07-28T18:35:14.070Z,5.35
2022-07-28T18:37:46.467Z,2.55
2022-07-28T18:40:21.619Z,6.75
2022-07-28T18:42:54.217Z,1.77
2022-07-28T18:45:26.668Z,3.00
2022-07-28T18:47:59.927Z,5.42
2022-07-28T18:50:32.443Z,3.02
2022-07-28T18:53:04.857Z,2.98
2022-07-28T18:55:36.979Z,2.72
2022-07-28T18:58:09.389Z,4.50
2022-07-28T19:00:41.444Z,4.35
2022-07-28T19:03:13.545Z,1.87
2022-07-28T19:05:46.511Z,1.20
2022-07-28T19:08:18.683Z,4.05
2022-07-28T19:10:50.963Z,4.97
2022-07-28T19:13:22.983Z,5.80
2022-07-28T19:15:55.124Z,1.80
2022-07-28T19:18:27.342Z,2.17
2022-07-28T19:20:59.854Z,2.85
2022-07-28T19:23:32.521Z,6.33
2022-07-28T19:26:04.643Z,6.03
2022-07-28T19:28:36.734Z,2.27
2022-07-28T19:31:10.466Z,1.98
2022-07-28T19:33:43.862Z,1.00
2022-07-28T19:36:16.526Z,2.52
2022-07-28T19:38:48.621Z,1.77
2022-07-28T19:41:20.748Z,1.30
2022-07-28T19:43:53.073Z,6.20
2022-07-28T19:46:26.189Z,4.17
2022-07-28T19:48:58.791Z,2.12
2022-07-28T19:51:30.863Z,2.62
2022-07-28T19:54:03.115Z,1.22
2022-07-28T19:56:35.303Z,2.33
2022-07-28T19:59:07.309Z,3.37
2022-07-28T20:01:44.198Z,4.00
2022-07-28T20:04:13.060Z,0.97
2022-07-28T20:06:45.249Z,4.65
2022-07-28T20:09:17.737Z,1.90
2022-07-28T20:11:50.669Z,1.37
2022-07-28T20:14:22.652Z,2.80
2022-07-28T20:16:54.870Z,3.02
2022-07-28T20:19:27.016Z,2.52
2022-07-28T20:21:59.275Z,0.70
2022-07-28T20:24:31.426Z,0.60
2022-07-28T20:27:08.335Z,3.80
2022-07-28T20:29:40.600Z,2.47
2022-07-28T20:32:13.022Z,2.65
2022-07-28T20:34:45.218Z,3.30
2022-07-28T20:37:24.507Z,1.12
2022-07-28T20:39:57.454Z,0.90
2022-07-28T20:42:29.840Z,0.90
2022-07-28T20:45:02.187Z,2.17
2022-07-28T20:47:35.074Z,2.30
2022-07-28T20:50:08.085Z,3.40
2022-07-28T20:52:40.255Z,2.40
2022-07-28T20:55:12.827Z,1.42
2022-07-28T20:57:53.523Z,1.45
2022-07-28T21:00:19.075Z,1.07
2022-07-28T21:02:51.611Z,1.75
2022-07-28T21:05:26.793Z,1.82
2022-07-28T21:08:05.080Z,4.50
2022-07-28T21:10:31.866Z,2.13
2022-07-28T21:13:03.967Z,1.50
2022-07-28T21:15:36.167Z,3.67
2022-07-28T21:18:08.180Z,2.15
2022-07-28T21:20:40.534Z,3.70
2022-07-28T21:23:12.599Z,4.75
2022-07-28T21:25:45.652Z,1.00
2022-07-28T21:28:35.025Z,1.17
2022-07-28T21:31:07.842Z,0.65
2022-07-28T21:33:40.257Z,1.77
2022-07-28T21:36:12.437Z,1.55
2022-07-28T21:38:45.695Z,5.37
2022-07-28T21:41:19.294Z,1.12
2022-07-28T21:43:53.510Z,4.80
2022-07-28T21:46:26.513Z,3.83
2022-07-28T21:49:01.269Z,3.92
2022-07-28T21:51:34.364Z,1.85
2022-07-28T21:54:06.629Z,2.87
2022-07-28T21:56:38.821Z,1.82
2022-07-28T21:59:10.902Z,2.50
2022-07-28T22:01:43.157Z,2.85
2022-07-28T22:04:15.704Z,2.83
2022-07-28T22:06:48.442Z,4.58
2022-07-28T22:09:20.805Z,1.35
2022-07-28T22:11:53.084Z,2.60
2022-07-28T22:14:26.973Z,3.12
2022-07-28T22:17:01.506Z,1.37
2022-07-28T22:19:34.151Z,1.57
2022-07-28T22:22:06.160Z,3.52
2022-07-28T22:24:38.419Z,1.02
2022-07-28T22:27:10.478Z,1.40
2022-07-28T22:29:43.484Z,2.27
2022-07-28T22:32:16.546Z,5.40
2022-07-28T22:34:48.993Z,1.10
2022-07-28T22:37:20.975Z,2.00
2022-07-28T22:39:53.276Z,3.65
2022-07-28T22:42:25.284Z,3.20
2022-07-28T22:44:57.292Z,1.17
2022-07-28T22:47:29.734Z,2.02
2022-07-28T22:50:01.723Z,1.60
2022-07-28T22:52:34.585Z,3.62
2022-07-28T22:55:07.189Z,2.58
2022-07-28T22:57:40.498Z,2.67
2022-07-28T23:00:12.856Z,1.75
2022-07-28T23:02:44.966Z,1.90
2022-07-28T23:05:17.239Z,0.80
2022-07-28T23:07:53.093Z,5.33
2022-07-28T23:10:23.172Z,1.15
2022-07-28T23:12:58.583Z,1.55
2022-07-28T23:15:40.902Z,6.90
2022-07-28T23:18:03.369Z,7.87
2022-07-28T23:20:35.820Z,3.10
2022-07-28T23:23:08.122Z,1.07
2022-07-28T23:25:43.046Z,2.35
2022-07-28T23:28:15.245Z,1.95
2022-07-28T23:30:48.229Z,0.82
2022-07-28T23:33:54.659Z,2.25
2022-07-28T23:35:55.802Z,2.20
2022-07-28T23:38:27.882Z,2.10
2022-07-28T23:40:59.894Z,1.57
2022-07-28T23:43:32.173Z,6.78
2022-07-28T23:46:04.210Z,4.40
2022-07-28T23:48:36.892Z,2.67
2022-07-28T23:51:08.990Z,2.37
2022-07-28T23:53:42.850Z,6.40
2022-07-28T23:56:15.960Z,4.85
2022-07-28T23:58:47.995Z,2.35
